createdAt,value
2019-01-24T00:00:29.317Z,-4.10
2019-01-24T00:02:56.931Z,-4.10
2019-01-24T00:05:24.495Z,-4.00
2019-01-24T00:07:52.063Z,-4.00
2019-01-24T00:10:19.635Z,-4.10
2019-01-24T00:12:47.157Z,-4.10
2019-01-24T00:15:14.785Z,-4.10
2019-01-24T00:17:42.341Z,-4.20
2019-01-24T00:20:09.997Z,-4.10
2019-01-24T00:22:37.536Z,-4.00
2019-01-24T00:25:05.315Z,-4.00
2019-01-24T00:27:32.875Z,-4.00
2019-01-24T00:30:00.407Z,-4.00
2019-01-24T00:32:27.957Z,-3.70
2019-01-24T00:34:55.509Z,-4.00
2019-01-24T00:37:23.189Z,-4.00
2019-01-24T00:39:50.892Z,-4.00
2019-01-24T00:42:18.403Z,-4.10
2019-01-24T00:44:45.929Z,-4.20
2019-01-24T00:47:13.475Z,-4.30
2019-01-24T00:49:40.997Z,-4.30
2019-01-24T00:52:08.522Z,-4.10
2019-01-24T00:54:36.066Z,-4.20
2019-01-24T00:57:03.589Z,-4.00
2019-01-24T00:59:31.109Z,-4.20
2019-01-24T01:01:58.666Z,-4.00
2019-01-24T01:04:29.738Z,-4.10
2019-01-24T01:06:55.523Z,-4.10
2019-01-24T01:09:26.143Z,-4.10
2019-01-24T01:11:53.665Z,-4.10
2019-01-24T01:14:21.204Z,-4.10
2019-01-24T01:16:48.861Z,-4.00
2019-01-24T01:19:16.456Z,-4.20
2019-01-24T01:21:43.993Z,-4.10
2019-01-24T01:24:11.589Z,-4.10
2019-01-24T01:26:39.104Z,-4.20
2019-01-24T01:29:06.629Z,-4.20
2019-01-24T01:31:34.165Z,-4.20
2019-01-24T01:34:01.728Z,-4.20
2019-01-24T01:36:29.258Z,-4.10
2019-01-24T01:38:56.826Z,-4.00
2019-01-24T01:41:24.353Z,-4.10
2019-01-24T01:43:51.879Z,-4.10
2019-01-24T01:46:19.429Z,-4.10
2019-01-24T01:48:47.049Z,-4.10
2019-01-24T01:51:14.577Z,-4.20
2019-01-24T01:53:42.109Z,-4.10
2019-01-24T01:56:09.657Z,-4.20
2019-01-24T01:58:37.157Z,-4.20
2019-01-24T02:01:05.190Z,-4.10
2019-01-24T02:03:32.745Z,-4.10
2019-01-24T02:06:00.271Z,-4.10
2019-01-24T02:08:27.823Z,-4.10
2019-01-24T02:10:55.382Z,-4.20
2019-01-24T02:13:22.934Z,-4.20
2019-01-24T02:15:50.540Z,-4.30
2019-01-24T02:18:18.068Z,-4.20
2019-01-24T02:20:45.586Z,-4.20
2019-01-24T02:23:13.140Z,-4.20
2019-01-24T02:25:40.663Z,-4.10
2019-01-24T02:28:08.191Z,-4.20
2019-01-24T02:30:35.734Z,-4.10
2019-01-24T02:33:03.264Z,-3.90
2019-01-24T02:35:30.772Z,-3.90
2019-01-24T02:37:58.386Z,-4.00
2019-01-24T02:40:25.954Z,-4.20
2019-01-24T02:42:53.471Z,-4.10
2019-01-24T02:45:22.270Z,-4.20
2019-01-24T02:47:49.815Z,-4.20
2019-01-24T02:50:18.686Z,-4.10
2019-01-24T02:52:46.309Z,-3.90
2019-01-24T02:55:14.480Z,-4.00
2019-01-24T02:57:42.109Z,-4.00
2019-01-24T03:00:12.157Z,-3.90
2019-01-24T03:02:39.739Z,-4.00
2019-01-24T03:05:09.363Z,-3.70
2019-01-24T03:07:36.930Z,-4.10
2019-01-24T03:10:05.957Z,-4.10
2019-01-24T03:12:33.503Z,-4.10
2019-01-24T03:15:01.032Z,-3.90
2019-01-24T03:17:28.543Z,-4.00
2019-01-24T03:19:56.116Z,-4.10
2019-01-24T03:22:23.696Z,-4.10
2019-01-24T03:24:51.235Z,-4.10
2019-01-24T03:27:18.792Z,-4.20
2019-01-24T03:29:46.361Z,-4.10
2019-01-24T03:32:13.905Z,-3.90
2019-01-24T03:34:41.431Z,-4.00
2019-01-24T03:37:08.980Z,-4.00
2019-01-24T03:39:36.512Z,-3.90
2019-01-24T03:42:04.148Z,-4.10
2019-01-24T03:44:31.701Z,-4.10
2019-01-24T03:46:59.226Z,-4.20
2019-01-24T03:49:26.754Z,-4.10
2019-01-24T03:51:54.304Z,-4.10
2019-01-24T03:54:21.824Z,-3.90
2019-01-24T03:56:49.687Z,-4.00
2019-01-24T03:59:17.236Z,-4.00
2019-01-24T04:01:44.766Z,-3.80
2019-01-24T04:04:12.289Z,-4.10
2019-01-24T04:06:39.844Z,-4.10
2019-01-24T04:09:08.028Z,-4.10
2019-01-24T04:11:35.540Z,-4.20
2019-01-24T04:14:03.140Z,-4.30
2019-01-24T04:16:30.668Z,-4.30
2019-01-24T04:18:58.205Z,-4.00
2019-01-24T04:21:25.721Z,-4.30
2019-01-24T04:23:53.252Z,-4.10
2019-01-24T04:26:20.820Z,-4.20
2019-01-24T04:28:48.329Z,-4.20
2019-01-24T04:31:15.835Z,-4.20
2019-01-24T04:33:43.401Z,-4.20
2019-01-24T04:36:10.910Z,-4.10
2019-01-24T04:38:38.436Z,-4.10
2019-01-24T04:41:05.984Z,-4.10
2019-01-24T04:43:33.504Z,-4.20
2019-01-24T04:46:01.113Z,-4.20
2019-01-24T04:48:28.644Z,-4.20
2019-01-24T04:50:56.218Z,-4.10
2019-01-24T04:53:23.759Z,-4.30
2019-01-24T04:55:51.327Z,-4.40
2019-01-24T04:58:18.872Z,-4.30
2019-01-24T05:00:46.394Z,-4.30
2019-01-24T05:03:13.970Z,-4.40
2019-01-24T05:05:41.476Z,-4.40
2019-01-24T05:08:09.005Z,-4.30
2019-01-24T05:10:36.570Z,-4.40
2019-01-24T05:13:04.059Z,-4.40
2019-01-24T05:15:31.560Z,-4.50
2019-01-24T05:17:59.135Z,-4.50
2019-01-24T05:20:26.644Z,-4.50
2019-01-24T05:22:54.176Z,-4.50
2019-01-24T05:25:21.744Z,-4.30
2019-01-24T05:27:49.262Z,-4.50
2019-01-24T05:30:21.432Z,-4.50
2019-01-24T05:32:48.997Z,-4.50
2019-01-24T05:35:16.524Z,-4.50
2019-01-24T05:37:44.030Z,-4.50
2019-01-24T05:40:11.599Z,-4.50
2019-01-24T05:42:39.123Z,-4.50
2019-01-24T05:45:07.167Z,-4.50
2019-01-24T05:47:34.733Z,-4.50
2019-01-24T05:50:02.529Z,-4.50
2019-01-24T05:52:30.070Z,-4.50
2019-01-24T05:54:57.630Z,-4.50
2019-01-24T05:57:25.181Z,-4.50
2019-01-24T05:59:52.683Z,-4.50
2019-01-24T06:02:20.228Z,-4.50
2019-01-24T06:04:47.764Z,-4.50
2019-01-24T06:07:15.296Z,-4.50
2019-01-24T06:09:42.836Z,-4.50
2019-01-24T06:12:10.368Z,-4.50
2019-01-24T06:14:37.890Z,-4.50
2019-01-24T06:17:05.436Z,-4.60
2019-01-24T06:19:33.037Z,-4.60
2019-01-24T06:22:00.551Z,-4.70
2019-01-24T06:24:28.142Z,-4.70
2019-01-24T06:26:55.749Z,-4.50
2019-01-24T06:29:23.284Z,-4.70
2019-01-24T06:31:50.871Z,-4.70
2019-01-24T06:34:18.416Z,-4.80
2019-01-24T06:36:45.929Z,-4.80
2019-01-24T06:39:13.452Z,-4.80
2019-01-24T06:41:41.007Z,-4.80
2019-01-24T06:44:08.527Z,-4.70
2019-01-24T06:46:36.080Z,-4.80
2019-01-24T06:49:03.965Z,-4.80
2019-01-24T06:51:31.566Z,-4.80
2019-01-24T06:53:59.069Z,-4.80
2019-01-24T06:56:26.648Z,-4.50
2019-01-24T06:58:55.556Z,-4.80
2019-01-24T07:01:23.885Z,-4.70
2019-01-24T07:03:52.157Z,-4.70
2019-01-24T07:06:20.196Z,-4.70
2019-01-24T07:08:47.730Z,-4.70
2019-01-24T07:11:15.341Z,-4.80
2019-01-24T07:13:42.851Z,-4.60
2019-01-24T07:16:10.370Z,-4.70
2019-01-24T07:18:37.916Z,-4.50
2019-01-24T07:21:05.508Z,-4.50
2019-01-24T07:23:33.044Z,-4.70
2019-01-24T07:26:00.628Z,-4.70
2019-01-24T07:28:28.146Z,-4.70
2019-01-24T07:30:55.648Z,-4.70
2019-01-24T07:33:23.191Z,-4.70
2019-01-24T07:35:50.742Z,-4.70
2019-01-24T07:38:18.286Z,-4.70
2019-01-24T07:40:45.798Z,-4.70
2019-01-24T07:43:13.384Z,-4.70
2019-01-24T07:45:41.117Z,-4.70
2019-01-24T07:48:08.640Z,-4.60
2019-01-24T07:50:36.130Z,-4.60
2019-01-24T07:53:05.661Z,-4.60
2019-01-24T07:55:33.160Z,-4.60
2019-01-24T07:58:00.751Z,-4.50
2019-01-24T08:00:28.580Z,-4.50
2019-01-24T08:02:56.082Z,-4.40
2019-01-24T08:05:24.156Z,-4.40
2019-01-24T08:07:51.658Z,-4.40
2019-01-24T08:10:19.876Z,-4.30
2019-01-24T08:12:47.387Z,-4.30
2019-01-24T08:15:16.194Z,-4.30
2019-01-24T08:17:43.892Z,-4.00
2019-01-24T08:20:14.052Z,-4.20
2019-01-24T08:22:41.678Z,-4.00
2019-01-24T08:25:09.578Z,-4.00
2019-01-24T08:27:37.127Z,-3.90
2019-01-24T08:30:08.618Z,-3.80
2019-01-24T08:32:36.194Z,-3.80
2019-01-24T08:35:04.466Z,-3.80
2019-01-24T08:37:31.989Z,-3.80
2019-01-24T08:39:59.556Z,-3.80
2019-01-24T08:42:27.103Z,-3.60
2019-01-24T08:44:54.636Z,-3.70
2019-01-24T08:47:22.179Z,-3.70
2019-01-24T08:49:49.764Z,-3.70
2019-01-24T08:52:17.300Z,-3.70
2019-01-24T08:54:44.820Z,-3.70
2019-01-24T08:57:12.390Z,-3.70
2019-01-24T08:59:39.904Z,-3.70
2019-01-24T09:02:10.263Z,-3.60
2019-01-24T09:04:37.789Z,-3.70
2019-01-24T09:07:05.316Z,-3.60
2019-01-24T09:09:32.884Z,-3.60
2019-01-24T09:12:00.388Z,-3.70
2019-01-24T09:14:27.876Z,-3.50
2019-01-24T09:16:55.818Z,-3.50
2019-01-24T09:19:23.326Z,-3.50
2019-01-24T09:21:50.841Z,-3.60
2019-01-24T09:24:18.370Z,-3.50
2019-01-24T09:26:45.898Z,-3.40
2019-01-24T09:29:13.418Z,-3.30
2019-01-24T09:31:41.082Z,-3.00
2019-01-24T09:34:08.613Z,-3.20
2019-01-24T09:36:36.088Z,-2.90
2019-01-24T09:39:07.103Z,-3.20
2019-01-24T09:41:34.607Z,-3.10
2019-01-24T09:44:02.104Z,-3.10
2019-01-24T09:46:29.652Z,-3.10
2019-01-24T09:48:57.166Z,-3.10
2019-01-24T09:51:24.663Z,-3.00
2019-01-24T09:53:52.169Z,-3.00
2019-01-24T09:56:19.668Z,-2.90
2019-01-24T09:58:47.273Z,-2.90
2019-01-24T10:01:14.798Z,-2.90
2019-01-24T10:03:42.360Z,-2.90
2019-01-24T10:06:09.855Z,-2.90
2019-01-24T10:08:37.367Z,-2.80
2019-01-24T10:11:04.888Z,-2.90
2019-01-24T10:13:32.404Z,-2.70
2019-01-24T10:15:59.934Z,-2.70
2019-01-24T10:18:27.442Z,-2.60
2019-01-24T10:20:55.102Z,-2.30
2019-01-24T10:23:22.596Z,-2.50
2019-01-24T10:25:50.557Z,-2.60
2019-01-24T10:28:18.063Z,-2.60
2019-01-24T10:30:45.571Z,-2.70
2019-01-24T10:33:13.166Z,-2.60
2019-01-24T10:35:40.648Z,-2.60
2019-01-24T10:38:08.150Z,-2.70
2019-01-24T10:40:35.697Z,-2.70
2019-01-24T10:43:03.391Z,-2.70
2019-01-24T10:45:30.895Z,-2.60
2019-01-24T10:47:58.448Z,-2.60
2019-01-24T10:50:26.479Z,-2.50
2019-01-24T10:52:54.006Z,-2.50
2019-01-24T10:55:23.850Z,-2.50
2019-01-24T10:57:52.102Z,-2.60
2019-01-24T11:00:24.992Z,-2.70
2019-01-24T11:02:52.712Z,-2.60
2019-01-24T11:05:20.227Z,-3.00
2019-01-24T11:07:47.756Z,-2.90
2019-01-24T11:10:16.804Z,-2.90
2019-01-24T11:12:44.393Z,-2.90
2019-01-24T11:15:14.576Z,-2.90
2019-01-24T11:17:42.150Z,-2.70
2019-01-24T11:20:11.091Z,-3.00
2019-01-24T11:22:38.624Z,-2.80
2019-01-24T11:25:08.185Z,-2.90
2019-01-24T11:27:35.775Z,-2.70
2019-01-24T11:30:04.509Z,-2.90
2019-01-24T11:32:32.068Z,-2.70
2019-01-24T11:34:59.604Z,-2.50
2019-01-24T11:37:27.151Z,-2.50
2019-01-24T11:39:54.697Z,-2.40
2019-01-24T11:42:22.201Z,-2.40
2019-01-24T11:44:50.057Z,-2.20
2019-01-24T11:47:17.610Z,-2.20
2019-01-24T11:49:45.116Z,-2.20
2019-01-24T11:52:12.623Z,-2.20
2019-01-24T11:54:40.186Z,-2.10
2019-01-24T11:57:07.703Z,-2.30
2019-01-24T11:59:35.222Z,-2.40
2019-01-24T12:02:02.812Z,-2.40
2019-01-24T12:04:30.279Z,-2.40
2019-01-24T12:07:03.960Z,-2.40
2019-01-24T12:09:27.398Z,-2.00
2019-01-24T12:11:54.915Z,-2.20
2019-01-24T12:14:22.423Z,-2.10
2019-01-24T12:16:49.972Z,-2.10
2019-01-24T12:19:17.492Z,-2.00
2019-01-24T12:21:45.007Z,-1.90
2019-01-24T12:24:12.523Z,-1.80
2019-01-24T12:26:40.078Z,-1.70
2019-01-24T12:29:07.627Z,-1.70
2019-01-24T12:31:35.094Z,-1.70
2019-01-24T12:34:02.572Z,-1.60
2019-01-24T12:36:30.102Z,-1.50
2019-01-24T12:38:57.658Z,-1.50
2019-01-24T12:41:25.137Z,-1.60
2019-01-24T12:43:52.707Z,-1.60
2019-01-24T12:46:20.213Z,-1.70
2019-01-24T12:48:47.784Z,-1.60
2019-01-24T12:51:15.294Z,-1.80
2019-01-24T12:53:42.788Z,-1.80
2019-01-24T12:56:10.312Z,-1.80
2019-01-24T12:58:37.836Z,-1.80
2019-01-24T13:01:05.333Z,-1.80
2019-01-24T13:03:32.847Z,-1.60
2019-01-24T13:06:00.356Z,-1.80
2019-01-24T13:08:28.249Z,-1.80
2019-01-24T13:10:55.825Z,-1.60
2019-01-24T13:13:23.344Z,-1.80
2019-01-24T13:15:50.908Z,-1.80
2019-01-24T13:18:18.525Z,-1.90
2019-01-24T13:20:46.054Z,-1.90
2019-01-24T13:23:13.566Z,-2.00
2019-01-24T13:25:41.091Z,-1.90
2019-01-24T13:28:08.620Z,-2.00
2019-01-24T13:30:36.163Z,-2.00
2019-01-24T13:33:04.989Z,-2.10
2019-01-24T13:35:32.507Z,-2.00
2019-01-24T13:38:00.014Z,-2.00
2019-01-24T13:40:29.112Z,-2.00
2019-01-24T13:42:57.434Z,-2.10
2019-01-24T13:45:27.152Z,-2.20
2019-01-24T13:47:54.746Z,-2.20
2019-01-24T13:50:22.290Z,-2.30
2019-01-24T13:52:49.796Z,-2.30
2019-01-24T13:55:17.443Z,-2.30
2019-01-24T13:57:45.070Z,-2.30
2019-01-24T14:00:18.111Z,-2.30
2019-01-24T14:02:47.211Z,-2.20
2019-01-24T14:05:15.125Z,-2.30
2019-01-24T14:07:42.705Z,-2.30
2019-01-24T14:10:11.775Z,-2.30
2019-01-24T14:12:39.302Z,-2.40
2019-01-24T14:15:09.763Z,-2.40
2019-01-24T14:17:37.290Z,-2.50
2019-01-24T14:20:06.990Z,-2.60
2019-01-24T14:22:34.553Z,-2.60
2019-01-24T14:25:02.073Z,-2.60
2019-01-24T14:27:29.667Z,-2.60
2019-01-24T14:29:57.459Z,-2.70
2019-01-24T14:32:24.998Z,-2.80
2019-01-24T14:34:52.558Z,-2.90
2019-01-24T14:37:20.086Z,-3.00
2019-01-24T14:39:47.715Z,-3.00
2019-01-24T14:42:15.405Z,-3.10
2019-01-24T14:44:42.963Z,-3.10
2019-01-24T14:47:10.532Z,-3.20
2019-01-24T14:49:38.076Z,-3.20
2019-01-24T14:52:06.043Z,-3.20
2019-01-24T14:54:33.574Z,-3.20
2019-01-24T14:57:01.117Z,-3.30
2019-01-24T14:59:28.654Z,-3.30
2019-01-24T15:01:56.178Z,-3.30
2019-01-24T15:04:23.699Z,-3.10
2019-01-24T15:06:51.270Z,-3.40
2019-01-24T15:09:19.103Z,-3.50
2019-01-24T15:11:46.636Z,-3.50
2019-01-24T15:14:14.215Z,-3.50
2019-01-24T15:16:41.723Z,-3.60
2019-01-24T15:19:09.239Z,-3.60
2019-01-24T15:21:36.795Z,-3.60
2019-01-24T15:24:04.371Z,-3.60
2019-01-24T15:26:32.040Z,-3.70
2019-01-24T15:28:59.819Z,-3.70
2019-01-24T15:31:27.345Z,-3.70
2019-01-24T15:33:54.878Z,-3.70
2019-01-24T15:36:22.524Z,-3.70
2019-01-24T15:38:50.023Z,-3.80
2019-01-24T15:41:17.569Z,-3.80
2019-01-24T15:43:45.086Z,-3.90
2019-01-24T15:46:12.622Z,-4.00
2019-01-24T15:48:42.850Z,-4.00
2019-01-24T15:51:09.555Z,-4.10
2019-01-24T15:53:37.124Z,-4.10
2019-01-24T15:56:04.700Z,-4.10
2019-01-24T15:58:32.246Z,-4.10
2019-01-24T16:00:59.827Z,-4.10
2019-01-24T16:03:27.411Z,-4.10
2019-01-24T16:05:55.044Z,-4.20
2019-01-24T16:08:22.595Z,-4.20
2019-01-24T16:10:50.162Z,-4.20
2019-01-24T16:13:17.707Z,-4.00
2019-01-24T16:15:45.229Z,-4.20
2019-01-24T16:18:13.664Z,-4.20
2019-01-24T16:20:41.250Z,-4.20
2019-01-24T16:23:08.784Z,-4.20
2019-01-24T16:25:36.584Z,-4.30
2019-01-24T16:28:04.324Z,-4.30
2019-01-24T16:30:32.803Z,-4.40
2019-01-24T16:33:01.695Z,-4.40
2019-01-24T16:35:29.544Z,-4.40
2019-01-24T16:37:57.068Z,-4.40
2019-01-24T16:40:25.784Z,-4.40
2019-01-24T16:42:53.347Z,-4.40
2019-01-24T16:45:22.963Z,-4.50
2019-01-24T16:47:50.487Z,-4.30
2019-01-24T16:50:19.053Z,-4.50
2019-01-24T16:52:46.587Z,-4.50
2019-01-24T16:55:15.658Z,-4.50
2019-01-24T16:57:43.229Z,-4.50
2019-01-24T17:00:17.208Z,-4.50
2019-01-24T17:02:44.759Z,-4.50
2019-01-24T17:05:12.335Z,-4.30
2019-01-24T17:07:39.910Z,-4.40
2019-01-24T17:10:10.281Z,-4.40
2019-01-24T17:12:37.853Z,-4.50
2019-01-24T17:15:06.463Z,-4.60
2019-01-24T17:17:34.007Z,-4.60
2019-01-24T17:20:01.579Z,-4.60
2019-01-24T17:22:29.137Z,-4.60
2019-01-24T17:24:56.847Z,-4.60
2019-01-24T17:27:24.512Z,-4.70
2019-01-24T17:29:52.083Z,-4.50
2019-01-24T17:32:19.597Z,-4.70
2019-01-24T17:34:47.132Z,-4.60
2019-01-24T17:37:14.698Z,-4.70
2019-01-24T17:39:42.279Z,-4.80
2019-01-24T17:42:09.795Z,-4.80
2019-01-24T17:44:37.391Z,-4.70
2019-01-24T17:47:04.961Z,-4.80
2019-01-24T17:49:32.529Z,-4.80
2019-01-24T17:52:00.112Z,-4.60
2019-01-24T17:54:27.756Z,-4.90
2019-01-24T17:56:55.312Z,-4.90
2019-01-24T18:10:55.005Z,-4.90
2019-01-24T18:13:22.607Z,-4.90
2019-01-24T18:15:50.431Z,-4.90
2019-01-24T18:18:18.413Z,-4.90
2019-01-24T18:20:46.256Z,-5.00
2019-01-24T18:23:14.029Z,-5.00
2019-01-24T18:25:41.646Z,-5.00
2019-01-24T18:28:11.077Z,-5.00
2019-01-24T18:30:38.803Z,-5.00
2019-01-24T18:33:06.460Z,-5.00
2019-01-24T18:35:34.303Z,-5.10
2019-01-24T18:38:01.899Z,-5.10
2019-01-24T18:40:29.582Z,-5.20
2019-01-24T18:42:57.420Z,-5.20
2019-01-24T18:45:37.015Z,-5.20
2019-01-24T18:48:05.087Z,-5.20
2019-01-24T18:50:33.367Z,-5.20
2019-01-24T18:53:00.952Z,-5.20
2019-01-24T18:55:28.772Z,-5.10
2019-01-24T18:57:56.531Z,-5.30
2019-01-24T19:00:43.962Z,-5.30
2019-01-24T19:03:11.981Z,-5.30
2019-01-24T19:05:40.637Z,-5.40
2019-01-24T19:08:08.534Z,-5.40
2019-01-24T19:10:36.431Z,-5.50
2019-01-24T19:13:05.843Z,-5.30
2019-01-24T19:15:33.513Z,-5.60
2019-01-24T19:18:01.097Z,-5.60
2019-01-24T19:20:28.717Z,-5.50
2019-01-24T19:22:56.278Z,-5.60
2019-01-24T19:25:23.877Z,-5.60
2019-01-24T19:27:51.406Z,-5.60
2019-01-24T19:30:24.022Z,-5.60
2019-01-24T19:32:52.018Z,-5.60
2019-01-24T19:35:19.557Z,-5.60
2019-01-24T19:37:47.347Z,-5.70
2019-01-24T19:40:17.387Z,-5.70
2019-01-24T19:42:44.962Z,-5.70
2019-01-24T19:45:15.420Z,-5.70
2019-01-24T19:47:43.014Z,-5.70
2019-01-24T19:50:15.060Z,-5.70
2019-01-24T19:52:42.622Z,-5.70
2019-01-24T19:55:10.593Z,-5.70
2019-01-24T19:57:38.305Z,-5.70
2019-01-24T20:00:09.576Z,-5.70
2019-01-24T20:02:37.208Z,-5.70
2019-01-24T20:05:06.101Z,-5.70
2019-01-24T20:07:34.163Z,-5.60
2019-01-24T20:10:01.719Z,-5.60
2019-01-24T20:12:29.240Z,-5.50
2019-01-24T20:14:56.792Z,-5.40
2019-01-24T20:17:24.357Z,-5.40
2019-01-24T20:19:51.867Z,-5.40
2019-01-24T20:22:19.411Z,-5.30
2019-01-24T20:24:47.040Z,-5.30
2019-01-24T20:27:14.589Z,-5.30
2019-01-24T20:29:42.145Z,-5.30
2019-01-24T20:32:09.851Z,-5.20
2019-01-24T20:34:38.995Z,-5.20
2019-01-24T20:37:06.678Z,-5.20
2019-01-24T20:39:34.261Z,-5.20
2019-01-24T20:42:01.878Z,-5.10
2019-01-24T20:44:29.406Z,-5.20
2019-01-24T20:46:56.975Z,-5.20
2019-01-24T20:49:24.611Z,-5.20
2019-01-24T20:51:52.148Z,-5.20
2019-01-24T20:54:19.795Z,-5.20
2019-01-24T20:56:47.511Z,-5.20
2019-01-24T20:59:15.197Z,-5.20
2019-01-24T21:01:42.782Z,-5.20
2019-01-24T21:04:10.343Z,-5.10
2019-01-24T21:06:37.919Z,-5.10
2019-01-24T21:09:14.498Z,-5.20
2019-01-24T21:11:37.363Z,-5.20
2019-01-24T21:14:05.323Z,-5.10
2019-01-24T21:16:32.881Z,-5.10
2019-01-24T21:19:00.523Z,-5.10
2019-01-24T21:21:28.138Z,-5.10
2019-01-24T21:23:55.761Z,-5.10
2019-01-24T21:26:23.365Z,-5.20
2019-01-24T21:28:51.011Z,-5.10
2019-01-24T21:31:18.691Z,-5.00
2019-01-24T21:33:46.307Z,-5.10
2019-01-24T21:36:13.861Z,-5.00
2019-01-24T21:38:41.446Z,-4.90
2019-01-24T21:41:09.022Z,-4.90
